Monticello, South Carolina
Current Conditions -  °F | °C
As of 2:55 AM on Wednesday 26 Nov 2014 (Local Time) from KFDW Reporting Station
Heavy Rain Heavy Rain  
Wind Chill: 50°   Ceiling: 500
Heat Index: 50°   Visibility: 5mi
Dew Point: 50°   Wind: 7mph
Humidity: 100%   Direction: 340°NNW
Pressure: 29.91"   Gusts: NA
Location:  34.35°N, 81.3°W
Report Text: KFDW 260755Z AUTO 34006KT 5SM +RA BKN005 OVC010 10/10 A2991 RMK AO1
Loading
Personal Weather Stations






























Interactive Weather Map New forecast layout! Learn more

10-Day Weather Forecast

Advertisements
Track Severe Weather on mobile